Time;durP1;ratioP1;P1;durP2;ratioP2;P2;SDS_P1;SDS_P2;PMS_P1;PMS_P2;Temp;Humidity;BMP_temperature;BMP_pressure;BME280_temperature;BME280_humidity;BME280_pressure;Samples;Min_cycle;Max_cycle;Signal;HPM_P1;HPM_P2
2022/09/06 00:00:40;;;;;;;15.88;10.80;;;;;;;-145.67;100.00;66521.78;4926007;28;20042;-67
2022/09/06 00:03:07;;;;;;;19.08;12.00;;;;;;;-145.67;100.00;66521.78;4938391;28;20031;-68
2022/09/06 00:05:33;;;;;;;18.38;10.77;;;;;;;-145.67;100.00;66521.78;4922046;28;20119;-67
2022/09/06 00:08:01;;;;;;;16.65;10.77;;;;;;;-145.67;100.00;66521.78;4922628;28;20495;-67
2022/09/06 00:10:29;;;;;;;16.98;10.35;;;;;;;-145.67;100.00;66521.78;4934387;28;20038;-67
2022/09/06 00:12:59;;;;;;;17.10;9.38;;;;;;;-145.67;100.00;66521.78;4938936;28;20055;-67
2022/09/06 00:15:24;;;;;;;19.20;10.25;;;;;;;-145.67;100.00;66521.78;4919772;28;20043;-67
2022/09/06 00:17:50;;;;;;;16.63;10.68;;;;;;;-145.67;100.00;66521.78;4940243;28;22336;-67
2022/09/06 00:20:16;;;;;;;19.05;10.93;;;;;;;-145.67;100.00;66521.78;4924760;28;20035;-68
2022/09/06 00:22:44;;;;;;;18.15;10.45;;;;;;;-145.67;100.00;66521.78;4924594;28;20028;-67
2022/09/06 00:25:11;;;;;;;14.43;10.32;;;;;;;-145.67;100.00;66521.78;4917520;28;20103;-66
2022/09/06 00:27:37;;;;;;;14.27;10.57;;;;;;;-145.67;100.00;66521.78;4923085;28;20134;-67
2022/09/06 00:30:06;;;;;;;16.40;10.73;;;;;;;-145.67;100.00;66521.78;4919661;28;20038;-67
2022/09/06 00:32:31;;;;;;;17.67;11.00;;;;;;;-145.67;100.00;66521.78;4939211;28;20600;-67
2022/09/06 00:34:57;;;;;;;14.80;11.63;;;;;;;-145.67;100.00;66521.78;4923975;28;20031;-67
2022/09/06 00:37:22;;;;;;;19.10;13.52;;;;;;;-145.67;100.00;66521.78;4923663;28;20035;-68
2022/09/06 00:39:55;;;;;;;19.42;12.45;;;;;;;-145.67;100.00;66521.78;4924076;28;20047;-69
2022/09/06 00:42:20;;;;;;;18.60;12.90;;;;;;;-145.67;100.00;66521.78;4939188;28;20244;-67
2022/09/06 00:44:48;;;;;;;20.83;12.63;;;;;;;-145.67;100.00;66521.78;4923184;28;20123;-66
2022/09/06 00:47:14;;;;;;;23.88;12.20;;;;;;;-145.67;100.00;66521.78;4938140;28;20035;-67
2022/09/06 00:49:43;;;;;;;20.88;12.90;;;;;;;-145.67;100.00;66521.78;4909123;28;20036;-67
2022/09/06 00:52:11;;;;;;;19.30;12.73;;;;;;;-145.67;100.00;66521.78;4924459;28;20546;-67
2022/09/06 00:54:37;;;;;;;22.17;13.73;;;;;;;-145.67;100.00;66521.78;4923497;28;20396;-67
2022/09/06 00:57:02;;;;;;;23.50;14.00;;;;;;;-145.67;100.00;66521.78;4938402;28;20050;-68
2022/09/06 00:59:30;;;;;;;26.52;14.32;;;;;;;-145.67;100.00;66521.78;4923609;28;21156;-68
2022/09/06 01:01:55;;;;;;;19.23;14.38;;;;;;;-145.67;100.00;66521.78;4934307;28;20112;-68
2022/09/06 01:04:21;;;;;;;22.17;14.80;;;;;;;-145.67;100.00;66521.78;4920402;28;20187;-67
2022/09/06 01:07:07;;;;;;;20.58;14.93;;;;;;;-145.67;100.00;66521.78;4924120;28;20567;-68
2022/09/06 01:10:00;;;;;;;20.33;14.18;;;;;;;-145.67;100.00;66521.78;4924613;28;20073;-67
2022/09/06 01:13:10;;;;;;;20.48;14.77;;;;;;;-145.67;100.00;66521.78;4918811;28;20059;-68
2022/09/06 01:15:48;;;;;;;23.50;15.00;;;;;;;-145.67;100.00;66521.78;4923568;28;20046;-67
2022/09/06 01:18:42;;;;;;;20.50;14.90;;;;;;;-145.67;100.00;66521.78;4917916;28;20043;-67
2022/09/06 01:21:13;;;;;;;20.60;15.80;;;;;;;-145.67;100.00;66521.78;4923728;28;20039;-67
2022/09/06 01:24:09;;;;;;;18.80;13.55;;;;;;;-145.67;100.00;66521.78;4921230;28;20047;-67
2022/09/06 01:26:47;;;;;;;19.38;13.30;;;;;;;-145.67;100.00;66521.78;4924579;28;20035;-66
2022/09/06 01:29:38;;;;;;;22.35;15.32;;;;;;;-145.67;100.00;66521.78;4922514;28;20047;-67
2022/09/06 01:32:11;;;;;;;20.13;14.95;;;;;;;-145.67;100.00;66521.78;4923318;28;20042;-67
2022/09/06 01:34:45;;;;;;;24.77;15.43;;;;;;;-145.67;100.00;66521.78;4938466;28;20054;-67
2022/09/06 01:37:16;;;;;;;21.90;15.65;;;;;;;-145.67;100.00;66521.78;4938816;28;20082;-67
2022/09/06 01:39:42;;;;;;;18.25;12.27;;;;;;;-145.67;100.00;66521.78;4907092;28;20075;-67
2022/09/06 01:42:25;;;;;;;15.18;11.43;;;;;;;-145.67;100.00;66521.78;4918456;28;20389;-67
2022/09/06 01:44:55;;;;;;;18.33;11.73;;;;;;;-145.67;100.00;66521.78;4924243;28;20110;-68
2022/09/06 01:47:42;;;;;;;16.77;11.48;;;;;;;-145.67;100.00;66521.78;4923602;28;20035;-67
2022/09/06 01:50:21;;;;;;;15.25;11.15;;;;;;;-145.67;100.00;66521.78;4918572;28;20456;-66
2022/09/06 01:53:16;;;;;;;16.42;11.27;;;;;;;-145.67;100.00;66521.78;4932157;28;20495;-67
2022/09/06 01:55:54;;;;;;;15.48;11.23;;;;;;;-145.67;100.00;66521.78;4926150;28;20030;-68
2022/09/06 01:59:14;;;;;;;18.02;11.05;;;;;;;-145.67;100.00;66521.78;4941994;28;20644;-68
2022/09/06 02:02:16;;;;;;;16.40;11.35;;;;;;;-145.67;100.00;66521.78;4902363;29;20175;-67
2022/09/06 02:04:49;;;;;;;16.27;11.57;;;;;;;-145.67;100.00;66521.78;4942564;28;20059;-67
2022/09/06 02:07:25;;;;;;;19.00;11.75;;;;;;;-145.67;100.00;66521.78;4942349;28;20041;-67
2022/09/06 02:10:02;;;;;;;17.60;11.43;;;;;;;-145.67;100.00;66521.78;4924672;28;20039;-67
2022/09/06 02:12:31;;;;;;;15.40;12.02;;;;;;;-145.67;100.00;66521.78;4921800;28;20129;-67
2022/09/06 02:15:08;;;;;;;17.20;12.02;;;;;;;-145.67;100.00;66521.78;4922291;28;20125;-67
2022/09/06 02:17:44;;;;;;;16.13;12.10;;;;;;;-145.67;100.00;66521.78;4940997;28;20090;-66
2022/09/06 02:20:15;;;;;;;15.90;12.02;;;;;;;-145.67;100.00;66521.78;4940848;28;20038;-67
2022/09/06 02:22:44;;;;;;;15.75;12.63;;;;;;;-145.67;100.00;66521.78;4939961;28;20584;-67
2022/09/06 02:25:20;;;;;;;18.05;12.30;;;;;;;-145.67;100.00;66521.78;4940897;28;20082;-67
2022/09/06 02:27:45;;;;;;;19.42;13.38;;;;;;;-145.67;100.00;66521.78;4922819;28;20085;-67
2022/09/06 02:30:11;;;;;;;19.33;13.68;;;;;;;-145.67;100.00;66521.78;4944269;28;20688;-67
2022/09/06 02:32:49;;;;;;;23.88;15.48;;;;;;;-145.67;100.00;66521.78;4928197;28;20801;-66
2022/09/06 02:35:16;;;;;;;24.00;15.63;;;;;;;-145.67;100.00;66521.78;4924296;28;20122;-68
2022/09/06 02:37:42;;;;;;;21.90;15.65;;;;;;;-145.67;100.00;66521.78;4946178;28;20035;-66
2022/09/06 02:40:09;;;;;;;22.60;15.82;;;;;;;-145.67;100.00;66521.78;4912228;28;20043;-67
2022/09/06 02:42:34;;;;;;;24.70;15.70;;;;;;;-145.67;100.00;66521.78;4928698;28;20089;-68
2022/09/06 02:45:03;;;;;;;23.15;15.93;;;;;;;-145.67;100.00;66521.78;4923219;28;20117;-67
2022/09/06 02:47:32;;;;;;;23.35;16.60;;;;;;;-145.67;100.00;66521.78;4944674;28;20031;-67
2022/09/06 02:49:57;;;;;;;21.13;16.55;;;;;;;-145.67;100.00;66521.78;4945112;28;20035;-67
2022/09/06 02:52:22;;;;;;;24.77;16.92;;;;;;;-145.67;100.00;66521.78;4911501;28;20041;-66
2022/09/06 02:54:48;;;;;;;23.35;17.73;;;;;;;-145.67;100.00;66521.78;4945095;28;20586;-67
2022/09/06 02:57:16;;;;;;;20.45;16.17;;;;;;;-145.67;100.00;66521.78;4944978;28;20035;-67
2022/09/06 02:59:41;;;;;;;24.20;17.52;;;;;;;-145.67;100.00;66521.78;4923914;28;20059;-67
2022/09/06 03:02:09;;;;;;;25.92;17.05;;;;;;;-145.67;100.00;66521.78;4928427;28;20046;-67
2022/09/06 03:04:34;;;;;;;28.90;18.77;;;;;;;-145.67;100.00;66521.78;4945594;28;20455;-66
2022/09/06 03:07:00;;;;;;;25.55;18.05;;;;;;;-145.67;100.00;66521.78;4922321;28;20037;-67
2022/09/06 03:09:25;;;;;;;27.55;18.50;;;;;;;-145.67;100.00;66521.78;4943724;28;21034;-67
2022/09/06 03:11:55;;;;;;;27.83;18.27;;;;;;;-145.67;100.00;66521.78;4944081;28;20455;-67
2022/09/06 03:14:21;;;;;;;28.27;18.45;;;;;;;-145.67;100.00;66521.78;4941073;28;20722;-67
2022/09/06 03:16:48;;;;;;;24.85;18.75;;;;;;;-145.67;100.00;66521.78;4932017;28;20039;-68
2022/09/06 03:19:16;;;;;;;25.60;19.10;;;;;;;-145.67;100.00;66521.78;4923413;28;20039;-68
2022/09/06 03:21:42;;;;;;;26.85;18.67;;;;;;;-145.67;100.00;66521.78;4927729;28;20035;-68
2022/09/06 03:24:10;;;;;;;29.17;19.15;;;;;;;-145.67;100.00;66521.78;4944486;28;20043;-68
2022/09/06 03:26:35;;;;;;;23.75;18.17;;;;;;;-145.67;100.00;66521.78;4944010;28;20113;-68
2022/09/06 03:29:00;;;;;;;27.75;19.58;;;;;;;-145.67;100.00;66521.78;4943849;28;20395;-68
2022/09/06 03:31:26;;;;;;;26.25;18.80;;;;;;;-145.67;100.00;66521.78;4943924;28;20701;-67
2022/09/06 03:33:54;;;;;;;29.38;19.10;;;;;;;-145.67;100.00;66521.78;4943660;28;20137;-67
2022/09/06 03:36:19;;;;;;;26.83;19.38;;;;;;;-145.67;100.00;66521.78;4945132;28;20121;-67
2022/09/06 03:38:47;;;;;;;26.13;19.33;;;;;;;-145.67;100.00;66521.78;4942042;28;20039;-68
2022/09/06 03:41:13;;;;;;;25.60;19.13;;;;;;;-145.67;100.00;66521.78;4944596;28;20070;-67
2022/09/06 03:43:38;;;;;;;24.83;19.00;;;;;;;-145.67;100.00;66521.78;4944257;28;20088;-67
2022/09/06 03:46:03;;;;;;;26.75;19.98;;;;;;;-145.67;100.00;66521.78;4945057;28;20541;-67
2022/09/06 03:48:29;;;;;;;30.23;19.77;;;;;;;-145.67;100.00;66521.78;4942526;28;20082;-67
2022/09/06 03:50:56;;;;;;;27.90;19.95;;;;;;;-145.67;100.00;66521.78;4927847;28;20034;-67
2022/09/06 03:53:25;;;;;;;28.30;19.52;;;;;;;-145.67;100.00;66521.78;4922563;28;20042;-67
2022/09/06 03:55:52;;;;;;;28.52;18.80;;;;;;;-145.67;100.00;66521.78;4924429;28;20034;-67
2022/09/06 03:58:21;;;;;;;27.10;19.67;;;;;;;-145.67;100.00;66521.78;4943923;28;20041;-67
2022/09/06 04:01:00;;;;;;;26.08;19.80;;;;;;;-145.67;100.00;66521.78;4942085;28;20059;-68
2022/09/06 04:03:28;;;;;;;27.92;19.75;;;;;;;-145.67;100.00;66521.78;4921767;28;20556;-67
2022/09/06 04:05:53;;;;;;;27.83;19.60;;;;;;;-145.67;100.00;66521.78;4943972;28;20495;-67
2022/09/06 04:08:19;;;;;;;27.13;16.85;;;;;;;-145.67;100.00;66521.78;4944663;28;20035;-67
2022/09/06 04:10:44;;;;;;;22.00;15.95;;;;;;;-145.67;100.00;66521.78;4940676;28;20035;-67
2022/09/06 04:13:09;;;;;;;24.48;16.58;;;;;;;-145.67;100.00;66521.78;4942485;28;20038;-67
2022/09/06 04:15:36;;;;;;;18.63;15.10;;;;;;;-145.67;100.00;66521.78;4943535;28;20135;-67
2022/09/06 04:18:01;;;;;;;21.92;15.32;;;;;;;-145.67;100.00;66521.78;4943646;28;20027;-67
2022/09/06 04:20:26;;;;;;;22.45;13.90;;;;;;;-145.67;100.00;66521.78;4922133;28;20043;-66
2022/09/06 04:22:52;;;;;;;17.70;12.38;;;;;;;-145.67;100.00;66521.78;4942194;28;20051;-66
2022/09/06 04:25:20;;;;;;;17.98;13.32;;;;;;;-145.67;100.00;66521.78;4935400;28;20056;-67
2022/09/06 04:27:45;;;;;;;15.30;12.65;;;;;;;-145.67;100.00;66521.78;4907204;28;20133;-66
2022/09/06 04:30:13;;;;;;;16.65;12.23;;;;;;;-145.67;100.00;66521.78;4922963;28;20122;-66
2022/09/06 04:32:39;;;;;;;16.77;12.48;;;;;;;-145.67;100.00;66521.78;4926529;28;20046;-67
2022/09/06 04:35:04;;;;;;;16.70;13.10;;;;;;;-145.67;100.00;66521.78;4942364;28;20435;-67
2022/09/06 04:37:30;;;;;;;20.25;13.73;;;;;;;-145.67;100.00;66521.78;4944169;28;20031;-67
2022/09/06 04:39:58;;;;;;;16.85;12.38;;;;;;;-145.67;100.00;66521.78;4943520;28;20035;-66
2022/09/06 04:42:24;;;;;;;18.23;13.15;;;;;;;-145.67;100.00;66521.78;4943442;28;20030;-66
2022/09/06 04:44:49;;;;;;;15.25;13.35;;;;;;;-145.67;100.00;66521.78;4926750;28;22264;-66
2022/09/06 04:47:18;;;;;;;17.20;13.32;;;;;;;-145.67;100.00;66521.78;4944378;28;20042;-66
2022/09/06 04:49:43;;;;;;;17.27;13.60;;;;;;;-145.67;100.00;66521.78;4905668;28;20040;-67
2022/09/06 04:52:10;;;;;;;21.25;14.18;;;;;;;-145.67;100.00;66521.78;4942773;28;20057;-66
2022/09/06 04:54:35;;;;;;;18.30;13.30;;;;;;;-145.67;100.00;66521.78;4940890;28;20055;-66
2022/09/06 04:57:01;;;;;;;18.70;14.02;;;;;;;-145.67;100.00;66521.78;4920155;28;20039;-66
2022/09/06 04:59:26;;;;;;;18.38;13.35;;;;;;;-145.67;100.00;66521.78;4921395;28;22449;-67
2022/09/06 05:01:52;;;;;;;13.55;12.15;;;;;;;-145.67;100.00;66521.78;4939051;28;20495;-66
2022/09/06 05:04:17;;;;;;;14.20;11.93;;;;;;;-145.67;100.00;66521.78;4925296;28;20150;-66
2022/09/06 05:06:45;;;;;;;16.80;11.15;;;;;;;-145.67;100.00;66521.78;4940484;28;20130;-66
2022/09/06 05:09:10;;;;;;;12.02;10.80;;;;;;;-145.67;100.00;66521.78;4929566;28;20042;-67
2022/09/06 05:11:36;;;;;;;17.02;11.45;;;;;;;-145.67;100.00;66521.78;4942442;28;20714;-67
2022/09/06 05:14:01;;;;;;;16.90;11.25;;;;;;;-145.67;100.00;66521.78;4937386;28;20062;-67
2022/09/06 05:16:26;;;;;;;16.40;11.15;;;;;;;-145.67;100.00;66521.78;4906652;28;20045;-66
2022/09/06 05:18:52;;;;;;;16.17;12.02;;;;;;;-145.67;100.00;66521.78;4940549;28;20133;-75
2022/09/06 05:21:20;;;;;;;16.00;12.15;;;;;;;-145.67;100.00;66521.78;4940064;28;20508;-74
2022/09/06 05:23:45;;;;;;;18.70;13.00;;;;;;;-145.67;100.00;66521.78;4940452;28;20082;-74
2022/09/06 05:26:11;;;;;;;17.85;13.30;;;;;;;-145.67;100.00;66521.78;4942304;28;20045;-74
2022/09/06 05:28:36;;;;;;;22.02;14.90;;;;;;;-145.67;100.00;66521.78;4940936;28;20031;-74
2022/09/06 05:31:06;;;;;;;22.98;14.23;;;;;;;-145.67;100.00;66521.78;4938714;28;20049;-74
2022/09/06 05:33:31;;;;;;;23.17;15.05;;;;;;;-145.67;100.00;66521.78;4940730;28;20038;-75
2022/09/06 05:35:57;;;;;;;22.42;18.08;;;;;;;-145.67;100.00;66521.78;4923496;28;20031;-74
2022/09/06 05:38:24;;;;;;;27.27;18.52;;;;;;;-145.67;100.00;66521.78;4919742;28;20051;-74
2022/09/06 05:40:49;;;;;;;24.88;19.13;;;;;;;-145.67;100.00;66521.78;4925813;28;20041;-74
2022/09/06 05:43:17;;;;;;;20.95;17.45;;;;;;;17.14;100.00;100939.44;4940428;28;20922;-75
2022/09/06 05:45:42;;;;;;;20.55;16.13;;;;;;;17.47;100.00;100948.59;4931057;28;20035;-75
2022/09/06 05:48:08;;;;;;;20.63;14.75;;;;;;;17.58;100.00;100933.81;4941252;28;21037;-74
2022/09/06 05:50:33;;;;;;;19.52;14.63;;;;;;;17.81;100.00;100923.25;4940733;28;20039;-75
2022/09/06 05:52:59;;;;;;;16.35;14.40;;;;;;;17.96;100.00;100914.91;4920735;28;20633;-73
2022/09/06 05:55:24;;;;;;;19.17;13.57;;;;;;;18.01;100.00;100906.72;4920851;28;20196;-75
2022/09/06 05:57:52;;;;;;;13.52;11.88;;;;;;;17.95;100.00;100898.91;4938918;28;20430;-75
2022/09/06 06:00:20;;;;;;;13.98;11.15;;;;;;;18.09;100.00;100911.47;4939261;28;20046;-70
2022/09/06 06:02:47;;;;;;;14.65;11.85;;;;;;;18.16;100.00;100906.50;4929710;28;20031;-75
2022/09/06 06:05:13;;;;;;;14.10;11.38;;;;;;;18.34;100.00;100913.00;4921971;28;20054;-75
2022/09/06 06:07:43;;;;;;;14.07;11.75;;;;;;;18.47;100.00;100908.72;4945688;28;20045;-75
2022/09/06 06:10:09;;;;;;;18.88;11.35;;;;;;;18.76;100.00;100909.38;4942821;28;20046;-76
2022/09/06 06:12:37;;;;;;;15.45;11.95;;;;;;;18.87;100.00;100898.31;4942430;28;20110;-76
2022/09/06 06:15:07;;;;;;;16.50;12.07;;;;;;;19.03;100.00;100892.28;4929179;28;20138;-75
2022/09/06 06:17:32;;;;;;;16.27;12.20;;;;;;;19.04;100.00;100904.78;4925063;28;20042;-75
2022/09/06 06:20:00;;;;;;;14.10;11.38;;;;;;;19.21;100.00;100904.19;4923938;28;20055;-74
2022/09/06 06:22:28;;;;;;;15.73;10.90;;;;;;;19.21;100.00;100904.19;4926911;28;20027;-74
2022/09/06 06:24:54;;;;;;;15.90;11.18;;;;;;;19.21;100.00;100904.19;4937403;28;20555;-74
2022/09/06 06:27:19;;;;;;;13.90;11.05;;;;;;;19.61;100.00;100907.25;4905138;28;20101;-76
2022/09/06 06:29:44;;;;;;;14.13;10.65;;;;;;;19.71;100.00;100906.22;4924471;28;20855;-74
2022/09/06 06:32:10;;;;;;;13.48;10.20;;;;;;;19.88;100.00;100907.22;4942176;28;20491;-73
2022/09/06 06:34:35;;;;;;;14.10;11.48;;;;;;;19.79;100.00;100913.69;4923384;28;20039;-74
2022/09/06 06:37:01;;;;;;;13.98;11.52;;;;;;;19.69;100.00;100911.97;4926200;28;20785;-73
2022/09/06 06:39:29;;;;;;;13.35;11.45;;;;;;;19.70;100.00;100915.50;4906379;28;20042;-74
2022/09/06 06:41:54;;;;;;;14.98;11.40;;;;;;;19.73;100.00;100914.91;4942597;28;20507;-73
2022/09/06 06:44:22;;;;;;;16.95;11.25;;;;;;;19.45;100.00;100909.44;4944824;28;20169;-74
2022/09/06 06:46:47;;;;;;;13.82;10.90;;;;;;;19.43;100.00;100899.97;4944238;28;20035;-74
2022/09/06 06:49:12;;;;;;;12.63;10.55;;;;;;;19.12;100.00;100897.03;4943582;28;20439;-73
2022/09/06 06:51:38;;;;;;;13.82;11.05;;;;;;;19.12;100.00;100897.03;4942933;28;20492;-72
2022/09/06 06:54:04;;;;;;;14.77;11.38;;;;;;;19.12;100.00;100897.03;4927914;28;20043;-73
2022/09/06 06:56:37;;;;;;;15.75;11.35;;;;;;;19.12;100.00;100897.03;4928057;28;20046;-73
2022/09/06 06:59:04;;;;;;;18.52;11.80;;;;;;;19.12;100.00;100897.03;4943019;28;20046;-73
2022/09/06 07:01:38;;;;;;;16.17;12.52;;;;;;;19.12;100.00;100897.03;4913792;28;20035;-72
2022/09/06 07:04:07;;;;;;;;;;;;;;;19.12;100.00;100897.03;4942111;28;20121;-72
2022/09/06 07:06:48;;;;;;;23.10;11.40;;;;;;;19.12;100.00;100897.03;4960146;28;20005;-72
2022/09/06 07:09:17;;;;;;;16.30;10.57;;;;;;;19.12;100.00;100897.03;4943487;28;20031;-72
2022/09/06 07:11:42;;;;;;;16.50;10.32;;;;;;;19.12;100.00;100897.03;4931011;28;20673;-72
2022/09/06 07:14:07;;;;;;;15.68;10.25;;;;;;;19.12;100.00;100897.03;4946579;28;20026;-72
2022/09/06 07:16:33;;;;;;;13.10;9.77;;;;;;;19.12;100.00;100897.03;4958389;28;20465;-71
2022/09/06 07:18:58;;;;;;;13.60;8.77;;;;;;;19.12;100.00;100897.03;4959737;28;20038;-72
2022/09/06 07:21:29;;;;;;;14.52;8.80;;;;;;;19.12;100.00;100897.03;4950741;28;20086;-71
2022/09/06 07:23:55;;;;;;;15.40;8.95;;;;;;;19.12;100.00;100897.03;4944618;28;20506;-71
2022/09/06 07:26:25;;;;;;;14.65;8.65;;;;;;;19.12;100.00;100897.03;4935998;28;20177;-71
2022/09/06 07:28:55;;;;;;;12.02;8.60;;;;;;;19.12;100.00;100897.03;4949574;28;20225;-71
2022/09/06 07:31:21;;;;;;;14.88;8.38;;;;;;;19.12;100.00;100897.03;4930578;28;20063;-72
2022/09/06 07:33:49;;;;;;;13.95;8.70;;;;;;;19.12;100.00;100897.03;4944027;28;20413;-70
2022/09/06 07:36:14;;;;;;;13.15;8.65;;;;;;;19.12;100.00;100897.03;4907504;28;20054;-73
2022/09/06 07:38:40;;;;;;;8.50;7.03;;;;;;;-145.67;100.00;66521.78;4924275;28;20459;-72
2022/09/06 07:41:11;;;;;;;8.77;7.30;;;;;;;19.12;100.00;100897.03;4943882;28;20389;-71
2022/09/06 07:43:37;;;;;;;10.55;7.15;;;;;;;-145.67;100.00;66521.78;4939216;28;21085;-72
2022/09/06 07:46:09;;;;;;;10.75;6.70;;;;;;;19.12;100.00;100897.03;4950758;28;20041;-71
2022/09/06 07:48:40;;;;;;;8.52;6.40;;;;;;;19.12;100.00;100897.03;4959069;28;20038;-70
2022/09/06 07:51:13;;;;;;;11.88;6.63;;;;;;;19.12;100.00;100897.03;4959603;28;20502;-70
2022/09/06 07:53:43;;;;;;;8.75;5.60;;;;;;;19.12;100.00;100897.03;4941031;28;21584;-73
2022/09/06 07:56:10;;;;;;;10.63;5.47;;;;;;;19.12;100.00;100897.03;4924623;28;20114;-72
2022/09/06 07:58:35;;;;;;;8.52;6.30;;;;;;;19.12;100.00;100897.03;4939473;28;20035;-74
2022/09/06 08:01:25;;;;;;;10.15;6.10;;;;;;;19.12;100.00;100897.03;4943608;28;20035;-74
2022/09/06 08:03:51;;;;;;;10.57;5.90;;;;;;;19.12;100.00;100897.03;4940210;28;20138;-73
2022/09/06 08:06:16;;;;;;;5.50;4.53;;;;;;;19.12;100.00;100897.03;4942040;28;20038;-73
2022/09/06 08:08:42;;;;;;;6.07;4.50;;;;;;;19.12;100.00;100897.03;4940328;28;20116;-73
2022/09/06 08:11:07;;;;;;;6.30;4.22;;;;;;;19.12;100.00;100897.03;4941271;28;20161;-73
2022/09/06 08:13:36;;;;;;;6.32;4.20;;;;;;;19.12;100.00;100897.03;4941340;28;20084;-75
2022/09/06 08:16:07;;;;;;;5.10;3.53;;;;;;;19.12;100.00;100897.03;4927291;28;20035;-75
2022/09/06 08:18:35;;;;;;;7.47;3.80;;;;;;;19.12;100.00;100897.03;4923642;28;20042;-72
2022/09/06 08:21:06;;;;;;;6.43;3.80;;;;;;;-145.67;100.00;66521.78;4921670;28;20279;-73
2022/09/06 08:23:31;;;;;;;5.90;3.60;;;;;;;-145.67;100.00;66521.78;4941279;28;20142;-73
2022/09/06 08:25:57;;;;;;;6.47;3.45;;;;;;;19.12;100.00;87047.00;4941413;28;20039;-72
2022/09/06 08:28:23;;;;;;;5.05;3.20;;;;;;;-145.67;100.00;66521.78;4938604;28;20035;-73
2022/09/06 08:30:48;;;;;;;3.83;2.72;;;;;;;-145.67;100.00;66521.78;4925089;28;20035;-72
2022/09/06 08:33:14;;;;;;;5.53;3.40;;;;;;;-145.67;100.00;66521.78;4953979;28;20038;-73
2022/09/06 08:35:40;;;;;;;5.70;2.92;;;;;;;-145.67;100.00;66521.78;4936380;28;20035;-73
2022/09/06 08:38:05;;;;;;;5.30;3.20;;;;;;;-145.67;100.00;66521.78;4949887;28;20041;-73
2022/09/06 08:40:31;;;;;;;5.93;3.60;;;;;;;-145.67;100.00;66521.78;4942711;28;20031;-73
2022/09/06 08:42:56;;;;;;;7.10;4.47;;;;;;;-145.66;100.00;101081.16;4943434;28;20420;-74
2022/09/06 08:45:24;;;;;;;9.02;5.00;;;;;;;24.39;100.00;101081.16;4942321;28;20121;-73
2022/09/06 08:47:51;;;;;;;5.75;4.20;;;;;;;23.96;100.00;101081.38;4924017;28;20030;-73
2022/09/06 08:50:20;;;;;;;8.52;4.70;;;;;;;-145.67;100.00;66521.78;4941948;28;20034;-73
2022/09/06 08:53:01;;;;;;;9.45;5.40;;;;;;;-145.67;100.00;66521.78;4941425;28;20045;-70
2022/09/06 08:55:47;;;;;;;8.25;5.82;;;;;;;-145.67;100.00;66521.78;4942716;28;20054;-72
2022/09/06 08:58:19;;;;;;;10.82;6.13;;;;;;;-145.67;100.00;66521.78;4942604;28;20045;-73
2022/09/06 09:00:59;;;;;;;10.10;5.85;;;;;;;-145.67;100.00;66521.78;4942556;28;20031;-72
2022/09/06 09:03:32;;;;;;;12.60;6.13;;;;;;;23.96;100.00;101081.38;4940770;28;20704;-73
2022/09/06 09:06:02;;;;;;;11.98;6.40;;;;;;;-145.67;100.00;66521.78;4925517;28;20356;-73
2022/09/06 09:08:40;;;;;;;9.00;6.50;;;;;;;-145.67;100.00;66521.78;4942611;28;20063;-73
2022/09/06 09:11:10;;;;;;;11.07;7.22;;;;;;;-145.67;100.00;66521.78;4926089;28;20054;-74
2022/09/06 09:13:58;;;;;;;11.18;7.60;;;;;;;-145.67;100.00;66521.78;4925577;28;20045;-74
2022/09/06 09:16:26;;;;;;;11.07;7.45;;;;;;;-145.67;100.00;66521.78;4942675;28;20184;-74
2022/09/06 09:18:55;;;;;;;11.93;7.90;;;;;;;-145.67;100.00;66521.78;4925460;28;20181;-73
2022/09/06 09:21:22;;;;;;;10.60;7.35;;;;;;;-145.67;100.00;66521.78;4926071;28;23389;-74
2022/09/06 09:23:52;;;;;;;9.18;7.18;;;;;;;-145.67;100.00;66521.78;4925065;28;20773;-73
2022/09/06 09:26:19;;;;;;;9.40;6.90;;;;;;;-145.67;100.00;66521.78;4920758;28;20545;-73
2022/09/06 09:29:08;;;;;;;12.50;6.95;;;;;;;-145.67;100.00;66521.78;4942952;28;20405;-73
2022/09/06 09:31:42;;;;;;;7.78;6.07;;;;;;;-145.67;100.00;66521.78;4943029;28;20185;-73
2022/09/06 09:34:12;;;;;;;12.88;8.10;;;;;;;-145.67;100.00;66521.78;4940124;28;20295;-73
2022/09/06 09:36:37;;;;;;;10.63;7.35;;;;;;;-145.67;100.00;66521.78;4941893;28;20043;-73
2022/09/06 09:39:11;;;;;;;11.32;7.68;;;;;;;-145.67;100.00;66521.78;4946343;28;20041;-73
2022/09/06 09:41:40;;;;;;;10.93;8.13;;;;;;;-145.67;100.00;66521.78;4946461;28;20086;-72
2022/09/06 09:44:19;;;;;;;10.95;7.60;;;;;;;-145.67;100.00;66521.78;4945616;28;20485;-72
2022/09/06 09:46:49;;;;;;;16.00;8.05;;;;;;;-145.67;100.00;66521.78;4946251;28;20089;-72
2022/09/06 09:49:20;;;;;;;15.30;7.38;;;;;;;-145.67;100.00;66521.78;4944602;28;20034;-72
2022/09/06 09:52:12;;;;;;;11.88;7.57;;;;;;;-145.67;100.00;66521.78;4945387;28;20043;-73
2022/09/06 09:54:43;;;;;;;11.15;7.10;;;;;;;-145.67;100.00;66521.78;4945772;28;20070;-73
2022/09/06 09:57:13;;;;;;;11.00;6.07;;;;;;;-145.67;100.00;66521.78;4945720;28;20038;-72
2022/09/06 09:59:48;;;;;;;8.98;6.03;;;;;;;-145.67;100.00;66521.78;4945842;28;20049;-73
2022/09/06 10:02:37;;;;;;;9.38;6.40;;;;;;;-145.67;100.00;66521.78;4945746;28;20070;-74
2022/09/06 10:05:13;;;;;;;9.10;6.55;;;;;;;-145.67;100.00;66521.78;4923584;28;20055;-74
2022/09/06 10:07:44;;;;;;;7.55;5.70;;;;;;;-145.67;100.00;66521.78;4945920;28;20045;-75
2022/09/06 10:10:13;;;;;;;9.48;6.18;;;;;;;-145.67;100.00;66521.78;4945121;28;20400;-72
2022/09/06 10:12:41;;;;;;;16.80;7.50;;;;;;;-145.67;100.00;66521.78;4945647;28;20035;-67
2022/09/06 10:15:08;;;;;;;11.77;6.65;;;;;;;;;;4945677;28;20066;-67
2022/09/06 10:17:36;;;;;;;16.63;7.75;;;;;;;-145.67;100.00;66521.78;4930821;28;20133;-65
2022/09/06 10:20:09;;;;;;;13.77;7.20;;;;;;;;;;4943842;28;20031;-67
2022/09/06 10:22:47;;;;;;;9.70;6.90;;;;;;;23.96;100.00;101081.38;4945500;28;20039;-66
2022/09/06 10:25:39;;;;;;;9.70;7.18;;;;;;;-145.67;100.00;66521.78;4929056;28;20046;-66
2022/09/06 10:28:04;;;;;;;8.95;7.47;;;;;;;-145.67;100.00;66521.78;4910513;28;20546;-66
2022/09/06 10:30:31;;;;;;;12.35;8.13;;;;;;;-145.67;100.00;66521.78;4945326;28;20122;-66
2022/09/06 10:33:03;;;;;;;11.68;7.82;;;;;;;-145.67;100.00;66521.78;4938916;28;20038;-64
2022/09/06 10:35:38;;;;;;;12.70;7.50;;;;;;;-145.67;100.00;66521.78;4928039;28;20456;-66
2022/09/06 10:38:26;;;;;;;12.65;8.63;;;;;;;-145.67;100.00;66521.78;4944066;28;20049;-65
2022/09/06 10:41:21;;;;;;;9.68;8.43;;;;;;;-145.67;100.00;66521.78;4928782;28;20457;-65
2022/09/06 10:43:59;;;;;;;9.95;8.20;;;;;;;-145.67;100.00;66521.78;4928955;28;20051;-66
2022/09/06 10:46:26;;;;;;;11.13;8.52;;;;;;;-145.67;100.00;66521.78;4944766;28;20396;-65
2022/09/06 10:48:52;;;;;;;13.07;9.50;;;;;;;-145.67;100.00;66521.78;4942280;28;20420;-65
2022/09/06 10:51:33;;;;;;;12.15;10.95;;;;;;;-145.67;100.00;66521.78;4944490;28;20468;-64
2022/09/06 10:54:18;;;;;;;11.60;10.05;;;;;;;23.96;100.00;101081.38;4944243;28;20051;-65
2022/09/06 10:57:15;;;;;;;13.55;9.98;;;;;;;23.96;100.00;101081.38;4931424;28;20042;-65
2022/09/06 10:59:51;;;;;;;9.63;8.63;;;;;;;23.96;100.00;101081.38;4935538;28;20475;-65
2022/09/06 11:03:06;;;;;;;11.82;8.98;;;;;;;23.96;100.00;101081.38;4912420;28;20034;-64
2022/09/06 11:05:44;;;;;;;16.25;9.52;;;;;;;23.96;100.00;101081.38;4939418;28;20569;-66
2022/09/06 11:08:39;;;;;;;10.20;8.30;;;;;;;23.96;100.00;101081.38;4943893;28;20480;-66
2022/09/06 11:11:15;;;;;;;11.25;8.95;;;;;;;23.96;100.00;101081.38;4921560;28;20117;-65
2022/09/06 11:13:40;;;;;;;12.00;8.88;;;;;;;23.96;100.00;101081.38;4944578;28;20035;-72
2022/09/06 11:16:12;;;;;;;9.57;7.53;;;;;;;23.96;100.00;101081.38;4945163;28;20063;-72